createdAt,value
2023-03-29T00:00:29.460Z,2.50
2023-03-29T00:02:56.548Z,2.30
2023-03-29T00:05:25.519Z,2.22
2023-03-29T00:07:54.270Z,2.17
2023-03-29T00:10:22.471Z,1.35
2023-03-29T00:12:49.319Z,1.70
2023-03-29T00:15:16.369Z,1.92
2023-03-29T00:17:43.123Z,1.95
2023-03-29T00:20:10.462Z,1.55
2023-03-29T00:22:37.800Z,2.42
2023-03-29T00:25:04.787Z,2.38
2023-03-29T00:27:31.618Z,1.85
2023-03-29T00:29:58.416Z,1.65
2023-03-29T00:32:25.508Z,2.53
2023-03-29T00:34:52.761Z,1.90
2023-03-29T00:37:19.498Z,2.30
2023-03-29T00:39:46.895Z,1.98
2023-03-29T00:42:15.421Z,1.52
2023-03-29T00:44:56.477Z,1.83
2023-03-29T00:47:53.275Z,2.17
2023-03-29T00:50:26.254Z,1.60
2023-03-29T00:53:09.480Z,1.13
2023-03-29T00:55:39.012Z,2.40
2023-03-29T00:58:07.441Z,2.30
2023-03-29T01:00:37.086Z,1.58
2023-03-29T01:03:09.035Z,2.00
2023-03-29T01:05:39.168Z,1.48
2023-03-29T01:08:08.985Z,1.20
2023-03-29T01:10:43.836Z,1.20
2023-03-29T01:13:13.280Z,1.90
2023-03-29T01:15:42.003Z,1.70
2023-03-29T01:18:09.117Z,2.03
2023-03-29T01:20:46.155Z,1.80
2023-03-29T01:23:29.256Z,1.65
2023-03-29T01:26:02.009Z,1.60
2023-03-29T01:28:59.495Z,0.88
2023-03-29T01:31:37.211Z,1.20
2023-03-29T01:34:18.679Z,1.30
2023-03-29T01:36:50.642Z,1.08
2023-03-29T01:39:18.959Z,1.20
2023-03-29T01:42:13.190Z,1.23
2023-03-29T01:44:48.920Z,0.95
2023-03-29T01:47:29.703Z,2.05
2023-03-29T01:50:13.973Z,1.23
2023-03-29T01:52:45.772Z,1.30
2023-03-29T01:55:15.001Z,1.00
2023-03-29T01:57:42.799Z,1.30
2023-03-29T02:00:14.279Z,0.85
2023-03-29T02:02:42.429Z,0.95
2023-03-29T02:05:10.014Z,1.35
2023-03-29T02:07:37.422Z,1.48
2023-03-29T02:10:05.611Z,0.95
2023-03-29T02:12:32.857Z,1.75
2023-03-29T02:15:00.834Z,0.95
2023-03-29T02:17:27.985Z,1.13
2023-03-29T02:20:17.380Z,1.15
2023-03-29T02:22:48.971Z,1.63
2023-03-29T02:25:15.762Z,0.93
2023-03-29T02:27:42.506Z,2.30
2023-03-29T02:30:09.859Z,1.02
2023-03-29T02:32:51.864Z,0.80
2023-03-29T02:35:22.066Z,0.65
2023-03-29T02:37:49.634Z,0.73
2023-03-29T02:40:16.817Z,1.30
2023-03-29T02:42:44.944Z,1.13
2023-03-29T02:45:12.973Z,1.05
2023-03-29T02:47:42.996Z,1.42
2023-03-29T02:50:10.192Z,1.33
2023-03-29T02:52:40.128Z,1.02
2023-03-29T02:55:15.010Z,1.10
2023-03-29T02:57:43.475Z,1.25
2023-03-29T03:00:11.286Z,1.27
2023-03-29T03:02:38.292Z,0.85
2023-03-29T03:05:06.037Z,1.33
2023-03-29T03:07:33.754Z,1.25
2023-03-29T03:10:00.432Z,1.15
2023-03-29T03:12:27.168Z,2.03
2023-03-29T03:14:54.831Z,2.15
2023-03-29T03:17:23.126Z,1.92
2023-03-29T03:19:49.889Z,1.75
2023-03-29T03:22:16.561Z,1.70
2023-03-29T03:24:43.373Z,1.85
2023-03-29T03:27:10.009Z,1.85
2023-03-29T03:29:38.559Z,1.33
2023-03-29T03:32:05.721Z,1.80
2023-03-29T03:34:32.507Z,1.30
2023-03-29T03:37:01.676Z,1.42
2023-03-29T03:39:28.416Z,1.58
2023-03-29T03:41:55.103Z,1.60
2023-03-29T03:44:21.820Z,1.08
2023-03-29T03:46:48.508Z,1.48
2023-03-29T03:49:15.256Z,1.70
2023-03-29T03:51:44.296Z,1.70
2023-03-29T03:54:11.301Z,1.77
2023-03-29T03:56:39.540Z,1.73
2023-03-29T03:59:07.138Z,1.38
2023-03-29T04:01:35.424Z,2.05
2023-03-29T04:04:02.935Z,1.40
2023-03-29T04:06:30.695Z,1.60
2023-03-29T04:08:57.927Z,1.40
2023-03-29T04:11:24.607Z,1.77
2023-03-29T04:13:51.640Z,1.63
2023-03-29T04:16:18.372Z,1.60
2023-03-29T04:18:45.160Z,1.17
2023-03-29T04:21:12.000Z,1.08
2023-03-29T04:23:38.783Z,1.30
2023-03-29T04:26:06.456Z,1.88
2023-03-29T04:28:33.224Z,1.05
2023-03-29T04:31:00.090Z,1.40
2023-03-29T04:33:28.846Z,1.38
2023-03-29T04:35:55.576Z,1.55
2023-03-29T04:38:25.173Z,1.10
2023-03-29T04:40:51.868Z,1.33
2023-03-29T04:43:18.628Z,1.38
2023-03-29T04:45:45.585Z,1.38
2023-03-29T04:48:12.353Z,1.67
2023-03-29T04:50:39.122Z,1.58
2023-03-29T04:53:07.417Z,1.08
2023-03-29T04:55:34.192Z,2.13
2023-03-29T04:58:01.206Z,1.30
2023-03-29T05:00:28.585Z,1.60
2023-03-29T05:02:55.487Z,1.58
2023-03-29T05:05:22.421Z,1.90
2023-03-29T05:07:49.217Z,1.25
2023-03-29T05:10:16.226Z,1.20
2023-03-29T05:12:42.934Z,1.80
2023-03-29T05:15:10.279Z,1.63
2023-03-29T05:17:37.323Z,1.77
2023-03-29T05:20:11.168Z,1.77
2023-03-29T05:22:38.432Z,1.45
2023-03-29T05:25:05.901Z,1.75
2023-03-29T05:27:33.488Z,1.58
2023-03-29T05:30:01.740Z,1.67
2023-03-29T05:32:28.892Z,1.30
2023-03-29T05:34:55.794Z,1.27
2023-03-29T05:37:22.763Z,1.60
2023-03-29T05:39:49.692Z,0.95
2023-03-29T05:42:19.363Z,1.20
2023-03-29T05:44:46.384Z,1.67
2023-03-29T05:47:13.646Z,1.40
2023-03-29T05:49:40.943Z,1.73
2023-03-29T05:52:07.713Z,1.35
2023-03-29T05:54:34.484Z,2.35
2023-03-29T05:57:01.676Z,1.98
2023-03-29T05:59:29.762Z,1.52
2023-03-29T06:01:56.637Z,2.00
2023-03-29T06:04:24.636Z,2.90
2023-03-29T06:06:53.122Z,1.50
2023-03-29T06:09:20.012Z,2.65
2023-03-29T06:11:47.601Z,1.30
2023-03-29T06:14:14.676Z,2.00
2023-03-29T06:16:42.792Z,1.92
2023-03-29T06:19:09.682Z,1.17
2023-03-29T06:21:36.353Z,1.92
2023-03-29T06:24:04.296Z,1.70
2023-03-29T06:26:31.401Z,1.38
2023-03-29T06:28:58.254Z,0.82
2023-03-29T06:31:25.541Z,1.30
2023-03-29T06:33:52.337Z,1.88
2023-03-29T06:36:20.382Z,1.52
2023-03-29T06:38:47.266Z,1.38
2023-03-29T06:41:14.858Z,1.38
2023-03-29T06:43:41.841Z,1.70
2023-03-29T06:46:11.751Z,1.63
2023-03-29T06:48:41.251Z,1.73
2023-03-29T06:51:08.376Z,2.20
2023-03-29T06:53:35.431Z,2.75
2023-03-29T06:56:09.103Z,2.35
2023-03-29T06:58:36.371Z,2.83
2023-03-29T07:01:04.202Z,2.08
2023-03-29T07:03:31.577Z,1.60
2023-03-29T07:06:09.945Z,1.52
2023-03-29T07:08:47.454Z,1.80
2023-03-29T07:11:14.752Z,2.30
2023-03-29T07:13:42.696Z,1.23
2023-03-29T07:16:13.930Z,1.48
2023-03-29T07:18:41.646Z,1.50
2023-03-29T07:21:08.825Z,1.13
2023-03-29T07:23:36.128Z,1.50
2023-03-29T07:26:03.831Z,2.80
2023-03-29T07:28:30.585Z,1.02
2023-03-29T07:31:07.844Z,2.03
2023-03-29T07:33:35.148Z,1.38
2023-03-29T07:36:02.236Z,1.42
2023-03-29T07:38:29.300Z,1.83
2023-03-29T07:40:56.267Z,0.70
2023-03-29T07:43:24.218Z,1.75
2023-03-29T07:45:52.661Z,1.35
2023-03-29T07:48:19.699Z,1.33
2023-03-29T07:50:46.727Z,1.20
2023-03-29T07:53:13.631Z,1.05
2023-03-29T07:55:47.300Z,0.65
2023-03-29T07:58:14.668Z,1.05
2023-03-29T08:00:41.636Z,0.40
2023-03-29T08:03:10.833Z,0.75
2023-03-29T08:05:41.818Z,0.63
2023-03-29T08:08:09.771Z,0.73
2023-03-29T08:10:37.750Z,0.90
2023-03-29T08:13:07.399Z,1.20
2023-03-29T08:15:35.332Z,1.42
2023-03-29T08:18:02.142Z,1.50
2023-03-29T08:20:28.893Z,1.02
2023-03-29T08:22:55.776Z,0.57
2023-03-29T08:25:22.467Z,0.40
2023-03-29T08:27:49.417Z,0.55
2023-03-29T08:30:16.453Z,0.93
2023-03-29T08:32:43.486Z,0.95
2023-03-29T08:35:10.399Z,1.02
2023-03-29T08:37:37.543Z,1.33
2023-03-29T08:40:05.601Z,0.80
2023-03-29T08:42:35.510Z,0.65
2023-03-29T08:45:26.749Z,0.95
2023-03-29T08:48:07.062Z,0.80
2023-03-29T08:50:38.349Z,0.90
2023-03-29T08:53:12.191Z,0.80
2023-03-29T08:55:43.351Z,1.17
2023-03-29T08:58:16.119Z,0.90
2023-03-29T09:00:57.694Z,0.73
2023-03-29T09:03:26.225Z,0.68
2023-03-29T09:06:10.026Z,1.33
2023-03-29T09:08:42.472Z,0.85
2023-03-29T09:11:24.604Z,1.08
2023-03-29T09:14:21.036Z,0.55
2023-03-29T09:17:00.286Z,0.63
2023-03-29T09:19:34.917Z,0.80
2023-03-29T09:22:10.642Z,0.90
2023-03-29T09:24:55.518Z,0.30
2023-03-29T09:27:25.268Z,1.13
2023-03-29T09:30:13.650Z,0.70
2023-03-29T09:32:50.058Z,0.75
2023-03-29T09:35:49.048Z,0.57
2023-03-29T09:38:15.921Z,0.45
2023-03-29T09:40:45.529Z,0.47
2023-03-29T09:43:18.419Z,0.20
2023-03-29T09:45:47.718Z,0.40
2023-03-29T09:48:15.974Z,0.40
2023-03-29T09:50:46.539Z,0.52
2023-03-29T09:53:15.278Z,0.40
2023-03-29T09:55:42.184Z,1.48
2023-03-29T09:58:16.882Z,0.28
2023-03-29T10:00:45.012Z,0.20
2023-03-29T10:03:28.620Z,0.32
2023-03-29T10:05:57.578Z,0.70
2023-03-29T10:08:36.970Z,0.30
2023-03-29T10:11:07.578Z,0.30
2023-03-29T10:13:35.949Z,0.28
2023-03-29T10:16:10.037Z,0.43
2023-03-29T10:18:40.724Z,0.30
2023-03-29T10:21:10.380Z,0.40
2023-03-29T10:23:38.079Z,0.20
2023-03-29T10:26:08.017Z,0.55
2023-03-29T10:28:35.018Z,0.40
2023-03-29T10:31:03.957Z,0.32
2023-03-29T10:33:32.527Z,0.80
2023-03-29T10:35:59.536Z,0.52
2023-03-29T10:38:28.217Z,0.68
2023-03-29T10:40:56.261Z,0.65
2023-03-29T10:43:26.552Z,0.80
2023-03-29T10:45:57.653Z,1.58
2023-03-29T10:48:28.966Z,1.00
2023-03-29T10:50:58.482Z,1.00
2023-03-29T10:53:37.648Z,1.15
2023-03-29T10:56:28.802Z,1.35
2023-03-29T10:58:55.464Z,1.48
2023-03-29T11:01:27.405Z,0.40
2023-03-29T11:04:14.750Z,0.73
2023-03-29T11:07:13.117Z,0.70
2023-03-29T11:09:54.904Z,0.30
2023-03-29T11:12:21.939Z,1.02
2023-03-29T11:14:48.634Z,0.90
2023-03-29T11:17:37.436Z,0.65
2023-03-29T11:20:16.283Z,0.75
2023-03-29T11:23:12.605Z,0.75
2023-03-29T11:25:49.168Z,1.52
2023-03-29T11:28:25.006Z,1.02
2023-03-29T11:31:00.546Z,0.98
2023-03-29T11:33:52.098Z,1.27
2023-03-29T11:36:57.849Z,1.38
2023-03-29T11:39:49.250Z,1.27
2023-03-29T11:42:21.954Z,1.55
2023-03-29T11:44:48.773Z,1.10
2023-03-29T11:47:20.584Z,2.55
2023-03-29T11:49:54.590Z,1.33
2023-03-29T11:52:34.320Z,2.28
2023-03-29T11:55:23.608Z,2.55
2023-03-29T11:57:57.019Z,2.97
2023-03-29T12:00:39.024Z,2.33
2023-03-29T12:03:41.425Z,2.38
2023-03-29T12:06:17.984Z,2.30
2023-03-29T12:08:48.339Z,3.83
2023-03-29T12:11:36.391Z,2.38
2023-03-29T12:14:11.382Z,2.30
2023-03-29T12:16:40.658Z,2.83
2023-03-29T12:19:21.489Z,4.63
2023-03-29T12:21:48.374Z,2.72
2023-03-29T12:24:16.288Z,2.35
2023-03-29T12:27:09.150Z,2.88
2023-03-29T12:30:05.227Z,2.38
2023-03-29T12:32:54.332Z,1.92
2023-03-29T12:35:42.231Z,2.58
2023-03-29T12:38:22.423Z,3.72
2023-03-29T12:40:54.741Z,3.70
2023-03-29T12:43:27.129Z,5.22
2023-03-29T12:46:02.098Z,4.72
2023-03-29T12:48:30.209Z,2.60
2023-03-29T12:51:02.860Z,2.60
2023-03-29T12:53:51.569Z,2.35
2023-03-29T12:56:20.830Z,1.85
2023-03-29T12:58:59.819Z,1.67
2023-03-29T13:01:31.136Z,3.20
2023-03-29T13:04:01.402Z,1.55
2023-03-29T13:06:34.535Z,2.90
2023-03-29T13:11:51.623Z,3.17
2023-03-29T13:14:19.546Z,4.05
2023-03-29T13:16:46.592Z,4.03
2023-03-29T13:19:36.065Z,4.72
2023-03-29T13:22:22.579Z,2.92
2023-03-29T13:25:18.812Z,3.78
2023-03-29T13:27:47.267Z,3.42
2023-03-29T13:30:48.304Z,3.70
2023-03-29T13:33:24.229Z,3.42
2023-03-29T13:36:03.158Z,5.03
2023-03-29T13:38:35.438Z,1.83
2023-03-29T13:41:06.982Z,3.67
2023-03-29T13:43:37.739Z,4.72
2023-03-29T13:46:06.846Z,3.17
2023-03-29T13:48:54.865Z,5.35
2023-03-29T13:51:52.889Z,4.55
2023-03-29T13:54:37.399Z,6.25
2023-03-29T13:57:09.499Z,4.10
2023-03-29T13:59:57.505Z,3.53
2023-03-29T14:02:41.208Z,3.55
2023-03-29T14:05:10.140Z,3.03
2023-03-29T14:07:38.087Z,3.70
2023-03-29T14:10:05.168Z,3.55
2023-03-29T14:12:42.190Z,3.25
2023-03-29T14:15:25.932Z,2.78
2023-03-29T14:18:01.476Z,3.38
2023-03-29T14:20:28.709Z,4.40
2023-03-29T14:22:55.844Z,4.43
2023-03-29T14:25:22.946Z,3.83
2023-03-29T14:27:49.825Z,3.28
2023-03-29T14:30:20.124Z,3.13
2023-03-29T14:32:48.489Z,2.45
2023-03-29T14:35:15.333Z,2.80
2023-03-29T14:37:42.272Z,3.58
2023-03-29T14:40:16.690Z,3.47
2023-03-29T14:42:43.494Z,5.63
2023-03-29T14:45:10.912Z,2.85
2023-03-29T14:47:40.334Z,3.90
2023-03-29T14:50:09.321Z,1.85
2023-03-29T14:52:36.103Z,2.95
2023-03-29T14:55:04.156Z,1.90
2023-03-29T14:57:35.594Z,2.47
2023-03-29T15:00:13.380Z,1.90
2023-03-29T15:02:55.323Z,2.72
2023-03-29T15:05:38.899Z,5.22
2023-03-29T15:08:07.560Z,1.73
2023-03-29T15:10:35.486Z,3.28
2023-03-29T15:13:03.494Z,2.25
2023-03-29T15:15:34.752Z,3.53
2023-03-29T15:18:02.338Z,2.80
2023-03-29T15:20:37.928Z,4.93
2023-03-29T15:23:14.339Z,2.90
2023-03-29T15:26:14.274Z,3.15
2023-03-29T15:28:55.560Z,2.67
2023-03-29T15:31:26.487Z,3.95
2023-03-29T15:34:12.891Z,2.53
2023-03-29T15:36:42.160Z,3.38
2023-03-29T15:39:13.817Z,3.65
2023-03-29T15:41:41.416Z,2.70
2023-03-29T15:44:08.135Z,3.83
2023-03-29T15:46:34.912Z,2.17
2023-03-29T15:49:01.862Z,2.00
2023-03-29T15:51:28.921Z,3.22
2023-03-29T15:53:55.796Z,3.30
2023-03-29T15:56:22.968Z,3.10
2023-03-29T15:58:50.996Z,3.92
2023-03-29T16:01:34.437Z,3.25
2023-03-29T16:04:02.731Z,2.42
2023-03-29T16:06:30.360Z,3.25
2023-03-29T16:08:57.517Z,4.30
2023-03-29T16:11:24.349Z,4.15
2023-03-29T16:13:51.539Z,1.40
2023-03-29T16:16:21.545Z,1.45
2023-03-29T16:18:48.428Z,2.35
2023-03-29T16:21:18.249Z,2.30
2023-03-29T16:23:46.327Z,2.90
2023-03-29T16:26:14.054Z,2.55
2023-03-29T16:28:41.260Z,2.05
2023-03-29T16:31:10.592Z,2.47
2023-03-29T16:33:37.955Z,2.72
2023-03-29T16:36:05.685Z,1.90
2023-03-29T16:38:33.778Z,2.05
2023-03-29T16:41:01.560Z,1.20
2023-03-29T16:43:29.039Z,4.00
2023-03-29T16:45:56.886Z,1.63
2023-03-29T16:48:23.874Z,1.75
2023-03-29T16:50:50.994Z,1.52
2023-03-29T16:53:21.814Z,2.40
2023-03-29T16:55:49.551Z,2.83
2023-03-29T16:58:16.331Z,1.95
2023-03-29T17:00:45.009Z,1.38
2023-03-29T17:03:13.431Z,2.45
2023-03-29T17:05:41.686Z,2.05
2023-03-29T17:08:10.062Z,1.60
2023-03-29T17:10:39.534Z,1.48
2023-03-29T17:13:06.735Z,0.90
2023-03-29T17:15:33.789Z,1.52
2023-03-29T17:18:00.621Z,1.20
2023-03-29T17:20:27.427Z,1.77
2023-03-29T17:22:55.968Z,2.03
2023-03-29T17:25:23.253Z,1.42
2023-03-29T17:27:50.539Z,1.55
2023-03-29T17:30:17.338Z,3.20
2023-03-29T17:32:45.597Z,1.77
2023-03-29T17:35:13.273Z,0.90
2023-03-29T17:37:40.072Z,1.60
2023-03-29T17:40:17.310Z,1.25
2023-03-29T17:42:46.426Z,1.70
2023-03-29T17:45:13.129Z,1.23
2023-03-29T17:47:39.924Z,1.58
2023-03-29T17:50:07.288Z,1.67
2023-03-29T17:52:34.174Z,1.48
2023-03-29T17:55:02.626Z,0.90
2023-03-29T17:57:29.555Z,1.77
2023-03-29T17:59:56.259Z,1.85
2023-03-29T18:02:24.027Z,1.25
2023-03-29T18:04:51.788Z,1.08
2023-03-29T18:07:20.905Z,1.02
2023-03-29T18:09:48.900Z,1.42
2023-03-29T18:12:15.649Z,1.85
2023-03-29T18:14:42.529Z,1.55
2023-03-29T18:17:11.650Z,1.50
2023-03-29T18:19:39.830Z,1.48
2023-03-29T18:22:06.947Z,2.08
2023-03-29T18:24:34.566Z,1.48
2023-03-29T18:27:01.403Z,1.33
2023-03-29T18:29:28.210Z,2.13
2023-03-29T18:31:55.614Z,2.05
2023-03-29T18:34:22.867Z,1.92
2023-03-29T18:36:50.878Z,0.90
2023-03-29T18:39:20.144Z,2.50
2023-03-29T18:41:47.075Z,0.88
2023-03-29T18:44:14.143Z,0.82
2023-03-29T18:46:41.369Z,2.13
2023-03-29T18:49:08.498Z,2.00
2023-03-29T18:51:35.413Z,3.20
2023-03-29T18:54:04.382Z,3.42
2023-03-29T18:56:31.755Z,1.90
2023-03-29T18:58:58.818Z,2.78
2023-03-29T19:01:25.834Z,2.00
2023-03-29T19:03:52.741Z,1.58
2023-03-29T19:06:19.527Z,2.15
2023-03-29T19:08:46.237Z,1.38
2023-03-29T19:11:14.353Z,1.30
2023-03-29T19:13:41.409Z,1.73
2023-03-29T19:16:08.294Z,1.17
2023-03-29T19:18:35.309Z,2.65
2023-03-29T19:21:02.416Z,2.13
2023-03-29T19:23:29.166Z,1.20
2023-03-29T19:25:57.121Z,2.15
2023-03-29T19:28:24.313Z,1.25
2023-03-29T19:30:51.217Z,2.13
2023-03-29T19:33:18.550Z,1.48
2023-03-29T19:35:45.400Z,2.28
2023-03-29T19:38:12.268Z,1.77
2023-03-29T19:40:39.003Z,1.77
2023-03-29T19:43:05.948Z,2.42
2023-03-29T19:45:32.629Z,1.52
2023-03-29T19:48:02.955Z,2.13
2023-03-29T19:50:31.644Z,2.40
2023-03-29T19:52:58.531Z,1.85
2023-03-29T19:55:26.010Z,1.30
2023-03-29T19:57:52.839Z,1.60
2023-03-29T20:00:24.368Z,1.85
2023-03-29T20:02:55.641Z,1.58
2023-03-29T20:05:24.528Z,1.30
2023-03-29T20:07:52.245Z,1.67
2023-03-29T20:10:19.032Z,2.00
2023-03-29T20:12:47.522Z,1.85
2023-03-29T20:15:14.429Z,1.60
2023-03-29T20:17:41.169Z,1.08
2023-03-29T20:20:10.410Z,1.95
2023-03-29T20:22:38.627Z,2.40
2023-03-29T20:25:05.643Z,2.08
2023-03-29T20:27:35.708Z,2.45
2023-03-29T20:30:03.122Z,2.80
2023-03-29T20:32:30.033Z,2.42
2023-03-29T20:34:56.757Z,2.28
2023-03-29T20:37:25.791Z,2.85
2023-03-29T20:39:52.877Z,2.60
2023-03-29T20:42:24.627Z,1.00
2023-03-29T20:44:51.537Z,1.75
2023-03-29T20:47:19.342Z,1.20
2023-03-29T20:49:46.242Z,1.58
2023-03-29T20:52:17.816Z,1.50
2023-03-29T20:54:45.107Z,1.92
2023-03-29T20:57:14.137Z,1.70
2023-03-29T20:59:41.610Z,1.23
2023-03-29T21:02:09.591Z,1.88
2023-03-29T21:04:36.973Z,2.75
2023-03-29T21:07:05.684Z,2.30
2023-03-29T21:09:34.329Z,2.75
2023-03-29T21:12:01.509Z,2.22
2023-03-29T21:14:30.321Z,2.95
2023-03-29T21:16:57.821Z,2.92
2023-03-29T21:19:24.517Z,3.45
2023-03-29T21:21:52.126Z,3.00
2023-03-29T21:24:19.358Z,3.13
2023-03-29T21:26:46.531Z,3.13
2023-03-29T21:29:13.656Z,2.20
2023-03-29T21:31:40.706Z,4.03
2023-03-29T21:34:07.504Z,3.15
2023-03-29T21:36:34.160Z,4.22
2023-03-29T21:39:00.942Z,3.72
2023-03-29T21:41:27.907Z,5.03
2023-03-29T21:43:54.631Z,5.93
2023-03-29T21:46:21.343Z,4.45
2023-03-29T21:48:48.097Z,2.35
2023-03-29T21:51:14.870Z,2.08
2023-03-29T21:53:41.621Z,5.07
2023-03-29T21:56:08.747Z,2.80
2023-03-29T21:58:35.550Z,3.88
2023-03-29T22:01:03.940Z,4.72
2023-03-29T22:03:31.384Z,4.68
2023-03-29T22:06:02.440Z,7.10
2023-03-29T22:08:29.751Z,4.05
2023-03-29T22:10:57.057Z,4.20
2023-03-29T22:13:27.890Z,5.50
2023-03-29T22:15:59.065Z,4.72
2023-03-29T22:18:30.205Z,7.03
2023-03-29T22:20:57.199Z,2.80
2023-03-29T22:23:25.245Z,4.78
2023-03-29T22:25:51.914Z,2.95
2023-03-29T22:28:18.706Z,5.15
2023-03-29T22:30:45.415Z,3.88
2023-03-29T22:33:12.188Z,5.72
2023-03-29T22:35:38.945Z,6.93
2023-03-29T22:38:08.497Z,6.47
2023-03-29T22:40:35.666Z,5.95
2023-03-29T22:43:05.190Z,6.28
2023-03-29T22:45:32.112Z,4.68
2023-03-29T22:47:59.034Z,6.65
2023-03-29T22:50:25.886Z,3.22
2023-03-29T22:52:52.693Z,3.63
2023-03-29T22:55:19.390Z,3.13
2023-03-29T22:57:46.224Z,2.05
2023-03-29T23:00:13.344Z,2.67
2023-03-29T23:02:40.793Z,4.47
2023-03-29T23:05:08.186Z,4.38
2023-03-29T23:07:36.501Z,6.20
2023-03-29T23:10:06.965Z,2.60
2023-03-29T23:12:36.167Z,3.70
2023-03-29T23:15:06.506Z,5.25
2023-03-29T23:17:34.768Z,4.30
2023-03-29T23:20:02.074Z,5.45
2023-03-29T23:22:28.772Z,2.83
2023-03-29T23:24:55.460Z,3.60
2023-03-29T23:27:22.197Z,3.60
2023-03-29T23:29:49.050Z,5.35
2023-03-29T23:32:15.786Z,5.05
2023-03-29T23:34:42.704Z,3.83
2023-03-29T23:37:09.510Z,2.95
2023-03-29T23:39:36.428Z,5.50
2023-03-29T23:42:03.582Z,4.43
2023-03-29T23:44:30.581Z,2.20
2023-03-29T23:46:57.334Z,3.65
2023-03-29T23:49:24.204Z,3.78
2023-03-29T23:51:51.048Z,2.78
2023-03-29T23:54:17.941Z,4.95
2023-03-29T23:56:44.708Z,4.90
2023-03-29T23:59:11.470Z,5.63
